Time;durP1;ratioP1;P1;durP2;ratioP2;P2;SDS_P1;SDS_P2;PMS_P1;PMS_P2;Temp;Humidity;BMP_temperature;BMP_pressure;BME280_temperature;BME280_humidity;BME280_pressure;Samples;Min_cycle;Max_cycle;Signal;HPM_P1;HPM_P2
2023/07/15 00:01:23;;;;;;;258.60;240.32;;;;;;;;;;5046780;28;20053;-65
2023/07/15 00:03:50;;;;;;;244.30;223.18;;;;;;;;;;5048488;28;20094;-61
2023/07/15 00:06:18;;;;;;;241.55;221.90;;;;;;;;;;5049417;28;20067;-66
2023/07/15 00:08:45;;;;;;;276.00;253.82;;;;;;;;;;5039986;28;20041;-62
2023/07/15 00:11:29;;;;;;;275.92;252.43;;;;;;;;;;5038803;28;20143;-62
2023/07/15 00:13:57;;;;;;;251.13;230.27;;;;;;;;;;5013992;28;20179;-62
2023/07/15 00:16:25;;;;;;;246.27;225.00;;;;;;;;;;5038855;28;20041;-73
2023/07/15 00:18:52;;;;;;;266.23;243.85;;;;;;;;;;5048589;28;20048;-63
2023/07/15 00:21:22;;;;;;;265.58;242.18;;;;;;;;;;5017759;28;20042;-62
2023/07/15 00:23:53;;;;;;;258.00;233.57;;;;;;;;;;5018650;28;20037;-62
2023/07/15 00:26:21;;;;;;;267.75;243.05;;;;;;;;;;5031994;28;20034;-62
2023/07/15 00:28:50;;;;;;;262.98;239.57;;;;;;;;;;5026244;28;20051;-61
2023/07/15 00:31:18;;;;;;;275.35;251.85;;;;;;;;;;5025627;28;20071;-61
2023/07/15 00:33:46;;;;;;;271.23;246.10;;;;;;;;;;5023533;28;20049;-62
2023/07/15 00:36:14;;;;;;;273.00;249.02;;;;;;;;;;5023214;28;20045;-62
2023/07/15 00:38:42;;;;;;;277.33;250.95;;;;;;;;;;5046121;28;20048;-67
2023/07/15 00:41:19;;;;;;;289.73;259.35;;;;;;;;;;5041812;28;20041;-64
2023/07/15 00:43:53;;;;;;;294.77;265.55;;;;;;;;;;5024783;28;20057;-63
2023/07/15 00:46:22;;;;;;;290.33;263.20;;;;;;;;;;5026615;28;20445;-62
2023/07/15 00:48:49;;;;;;;293.23;266.95;;;;;;;;;;5024413;28;20060;-64
2023/07/15 00:51:17;;;;;;;291.92;265.23;;;;;;;;;;5041272;28;20401;-62
2023/07/15 00:53:44;;;;;;;272.38;246.02;;;;;;;;;;5026392;28;20046;-64
2023/07/15 00:56:12;;;;;;;280.42;253.68;;;;;;;;;;5044988;28;20052;-64
2023/07/15 00:58:40;;;;;;;282.58;253.05;;;;;;;;;;5020725;28;20056;-67
2023/07/15 01:01:13;;;;;;;252.05;229.38;;;;;;;;;;5047322;28;20045;-63
2023/07/15 01:03:40;;;;;;;259.17;235.50;;;;;;;;;;5030054;28;20051;-63
2023/07/15 01:06:07;;;;;;;264.65;237.63;;;;;;;;;;5025931;28;20049;-62
2023/07/15 01:08:35;;;;;;;252.25;230.85;;;;;;;;;;5028413;28;20132;-63
2023/07/15 01:11:02;;;;;;;261.02;237.52;;;;;;;;;;5027569;28;20049;-62
2023/07/15 01:13:29;;;;;;;267.52;239.52;;;;;;;;;;5035934;28;20410;-70
2023/07/15 01:15:56;;;;;;;259.40;236.68;;;;;;;;;;5037041;28;20102;-61
2023/07/15 01:18:23;;;;;;;257.02;232.73;;;;;;;;;;5012621;28;20048;-65
2023/07/15 01:20:50;;;;;;;238.30;216.73;;;;;;;;;;5035161;28;20048;-62
2023/07/15 01:23:17;;;;;;;245.20;223.63;;;;;;;;;;5023879;28;20041;-64
2023/07/15 01:25:44;;;;;;;263.42;236.10;;;;;;;;;;5043976;28;20420;-63
2023/07/15 01:28:12;;;;;;;256.80;232.82;;;;;;;;;;5035642;28;20042;-66
2023/07/15 01:30:39;;;;;;;230.52;209.20;;;;;;;;;;5034882;28;20052;-61
2023/07/15 01:33:06;;;;;;;233.65;211.57;;;;;;;;;;5024493;28;20156;-63
2023/07/15 01:35:33;;;;;;;234.35;211.77;;;;;;;;;;5045614;28;20087;-64
2023/07/15 01:38:01;;;;;;;243.43;218.70;;;;;;;;;;5044711;28;20051;-62
2023/07/15 01:40:28;;;;;;;251.20;226.55;;;;;;;;;;5043168;28;20124;-62
2023/07/15 01:42:57;;;;;;;247.52;225.00;;;;;;;;;;5045962;28;20045;-62
2023/07/15 01:45:24;;;;;;;231.38;211.48;;;;;;;;;;5034741;28;20050;-63
2023/07/15 01:47:51;;;;;;;251.73;226.02;;;;;;;;;;5040846;28;20818;-66
2023/07/15 01:50:18;;;;;;;226.30;203.63;;;;;;;;;;5048501;28;20029;-62
2023/07/15 01:52:45;;;;;;;223.30;200.57;;;;;;;;;;5028436;28;20521;-62
2023/07/15 01:55:12;;;;;;;216.60;196.07;;;;;;;;;;5024964;28;20061;-62
2023/07/15 01:57:39;;;;;;;226.63;205.43;;;;;;;;;;5025811;28;20060;-62
2023/07/15 02:00:08;;;;;;;230.77;209.00;;;;;;;;;;5032382;28;20505;-62
2023/07/15 02:02:40;;;;;;;202.43;180.88;;;;;;;;;;5108114;22;20044;-63
2023/07/15 02:05:07;;;;;;;185.75;167.45;;;;;;;;;;5046307;28;20128;-60
2023/07/15 02:07:34;;;;;;;190.30;164.82;;;;;;;;;;5025557;28;20045;-60
2023/07/15 02:10:01;;;;;;;187.00;168.23;;;;;;;;;;5006902;28;20048;-59
2023/07/15 02:12:28;;;;;;;187.77;170.02;;;;;;;;;;5046466;28;20049;-59
2023/07/15 02:14:55;;;;;;;178.52;160.82;;;;;;;;;;5043615;28;20037;-59
2023/07/15 02:17:23;;;;;;;179.13;162.32;;;;;;;;;;5020918;28;20042;-60
2023/07/15 02:19:50;;;;;;;187.18;166.85;;;;;;;;;;5035343;28;20045;-59
2023/07/15 02:22:17;;;;;;;171.18;154.32;;;;;;;;;;5042322;28;20060;-59
2023/07/15 02:24:44;;;;;;;171.68;155.48;;;;;;;;;;5042941;28;20044;-59
2023/07/15 02:27:12;;;;;;;175.57;157.43;;;;;;;;;;5022262;28;20087;-58
2023/07/15 02:29:39;;;;;;;170.98;153.18;;;;;;;;;;5040989;28;20095;-59
2023/07/15 02:32:06;;;;;;;170.50;153.27;;;;;;;;;;5024655;28;20103;-61
2023/07/15 02:34:33;;;;;;;181.60;159.50;;;;;;;;;;5042099;28;20072;-59
2023/07/15 02:37:01;;;;;;;168.45;152.93;;;;;;;;;;5007386;28;20522;-59
2023/07/15 02:39:28;;;;;;;148.75;134.50;;;;;;;;;;5032948;28;20133;-59
2023/07/15 02:41:57;;;;;;;162.23;146.10;;;;;;;;;;5032513;28;20552;-60
2023/07/15 02:44:24;;;;;;;161.88;148.32;;;;;;;;;;5023833;28;20261;-60
2023/07/15 02:46:51;;;;;;;174.63;155.70;;;;;;;;;;5042498;28;20056;-60
2023/07/15 02:49:19;;;;;;;172.23;156.55;;;;;;;;;;5027221;28;20045;-59
2023/07/15 02:51:46;;;;;;;173.68;157.55;;;;;;;;;;5032705;28;20045;-60
2023/07/15 02:54:13;;;;;;;166.65;152.15;;;;;;;;;;5030201;28;20447;-59
2023/07/15 02:56:40;;;;;;;165.82;150.43;;;;;;;;;;5041782;28;20120;-59
2023/07/15 02:59:07;;;;;;;183.45;164.20;;;;;;;;;;5024699;28;20056;-59
2023/07/15 03:01:34;;;;;;;207.05;184.98;;;;;;;;;;5041939;28;20041;-59
2023/07/15 03:04:02;;;;;;;164.75;150.00;;;;;;;;;;5048695;28;20040;-60
2023/07/15 03:06:31;;;;;;;157.25;143.73;;;;;;;;;;5052737;28;20052;-59
2023/07/15 03:08:58;;;;;;;170.43;155.50;;;;;;;;;;5037172;28;20052;-59
2023/07/15 03:11:26;;;;;;;174.02;159.45;;;;;;;;;;5052120;28;20485;-59
2023/07/15 03:13:55;;;;;;;191.32;174.02;;;;;;;;;;5051344;28;20131;-59
2023/07/15 03:16:22;;;;;;;185.35;169.02;;;;;;;;;;5043470;28;20041;-59
2023/07/15 03:18:49;;;;;;;183.77;167.75;;;;;;;;;;5058753;28;20040;-59
2023/07/15 03:21:16;;;;;;;183.15;165.85;;;;;;;;;;5062205;28;20663;-60
2023/07/15 03:23:43;;;;;;;197.77;178.07;;;;;;;;;;5051179;28;20049;-59
2023/07/15 03:26:10;;;;;;;193.63;176.07;;;;;;;;;;5048713;28;20055;-60
2023/07/15 03:28:38;;;;;;;208.35;185.95;;;;;;;;;;5044300;28;20135;-58
2023/07/15 03:31:05;;;;;;;214.43;194.90;;;;;;;;;;5052677;28;20047;-59
2023/07/15 03:33:32;;;;;;;207.07;188.23;;;;;;;;;;5051465;28;20487;-58
2023/07/15 03:35:59;;;;;;;208.98;192.20;;;;;;;;;;5042119;28;20075;-58
2023/07/15 03:38:26;;;;;;;218.73;201.10;;;;;;;;;;5065670;28;20037;-60
2023/07/15 03:40:55;;;;;;;216.00;198.27;;;;;;;;;;5048427;28;20048;-60
2023/07/15 03:43:22;;;;;;;216.10;198.45;;;;;;;;;;5043293;28;20044;-61
2023/07/15 03:45:49;;;;;;;207.52;189.60;;;;;;;;;;5052253;28;20040;-60
2023/07/15 03:48:15;;;;;;;213.50;195.43;;;;;;;;;;5067912;28;20044;-62
2023/07/15 03:50:45;;;;;;;221.07;203.52;;;;;;;;;;5041158;28;20409;-58
2023/07/15 03:53:13;;;;;;;221.02;201.73;;;;;;;;;;5044242;28;20118;-60
2023/07/15 03:55:40;;;;;;;240.00;214.07;;;;;;;;;;5046257;28;20056;-60
2023/07/15 03:58:08;;;;;;;269.88;211.85;;;;;;;;;;5041262;28;20049;-61
2023/07/15 04:00:35;;;;;;;229.82;210.80;;;;;;;;;;5059666;28;20037;-60
2023/07/15 04:03:02;;;;;;;242.15;221.63;;;;;;;;;;5065609;28;20052;-59
2023/07/15 04:05:29;;;;;;;224.52;204.05;;;;;;;;;;5062490;28;20052;-59
2023/07/15 04:07:56;;;;;;;224.80;204.95;;;;;;;;;;5044739;28;20045;-60
2023/07/15 04:10:23;;;;;;;221.80;201.55;;;;;;;;;;5063744;28;20561;-58
2023/07/15 04:12:50;;;;;;;234.02;214.52;;;;;;;;;;5066572;28;20064;-58
2023/07/15 04:15:17;;;;;;;233.48;215.02;;;;;;;;;;5059711;28;20049;-60
2023/07/15 04:17:44;;;;;;;245.52;224.05;;;;;;;;;;5028750;28;20044;-61
2023/07/15 04:20:17;;;;;;;240.57;219.63;;;;;;;;;;5041268;28;20061;-60
2023/07/15 04:22:44;;;;;;;239.27;216.85;;;;;;;;;;5065009;28;20041;-58
2023/07/15 04:25:11;;;;;;;236.18;217.63;;;;;;;;;;5062305;28;20064;-59
2023/07/15 04:27:39;;;;;;;224.05;206.07;;;;;;;;;;5052369;28;20051;-59
2023/07/15 04:30:06;;;;;;;205.45;186.77;;;;;;;;;;5050911;28;20072;-62
2023/07/15 04:32:33;;;;;;;202.00;184.98;;;;;;;;;;5068117;28;20513;-59
2023/07/15 04:35:02;;;;;;;201.57;184.43;;;;;;;;;;5055105;28;20047;-58
2023/07/15 04:37:29;;;;;;;204.55;186.35;;;;;;;;;;5066759;28;20048;-64
2023/07/15 04:39:57;;;;;;;212.77;195.13;;;;;;;;;;5053702;28;20052;-60
2023/07/15 04:42:23;;;;;;;207.70;187.23;;;;;;;;;;5044264;28;20489;-58
2023/07/15 04:44:50;;;;;;;205.75;187.80;;;;;;;;;;5049958;28;20064;-59
2023/07/15 04:47:17;;;;;;;200.07;182.30;;;;;;;;;;5046401;28;20127;-59
2023/07/15 04:49:44;;;;;;;237.35;188.80;;;;;;;;;;5064626;28;20075;-59
2023/07/15 04:52:11;;;;;;;203.40;186.07;;;;;;;;;;5055530;28;20045;-60
2023/07/15 04:54:38;;;;;;;218.90;201.32;;;;;;;;;;5054971;28;20048;-60
2023/07/15 04:57:06;;;;;;;274.83;250.02;;;;;;;;;;5052501;28;20041;-59
2023/07/15 04:59:33;;;;;;;455.00;416.33;;;;;;;;;;5054795;28;20053;-59
2023/07/15 05:02:00;;;;;;;437.23;401.25;;;;;;;;;;5050445;28;20060;-59
2023/07/15 05:04:27;;;;;;;451.23;414.98;;;;;;;;;;5048019;28;20044;-60
2023/07/15 05:06:54;;;;;;;448.38;413.08;;;;;;;;;;5046695;28;20127;-61
2023/07/15 05:09:22;;;;;;;474.95;436.60;;;;;;;;;;5062084;28;20049;-59
2023/07/15 05:11:49;;;;;;;487.45;447.52;;;;;;;;;;5064990;28;20635;-60
2023/07/15 05:14:16;;;;;;;456.73;418.83;;;;;;;;;;5064668;28;20041;-59
2023/07/15 05:16:44;;;;;;;454.23;415.13;;;;;;;;;;5064431;28;20047;-60
2023/07/15 05:19:11;;;;;;;442.48;407.92;;;;;;;;;;5055677;28;20044;-58
2023/07/15 05:21:38;;;;;;;444.30;407.35;;;;;;;;;;5053600;28;20048;-59
2023/07/15 05:24:06;;;;;;;430.38;395.23;;;;;;;;;;5048797;28;20045;-60
2023/07/15 05:26:33;;;;;;;439.08;403.45;;;;;;;;;;5053399;28;20077;-59
2023/07/15 05:29:00;;;;;;;462.83;424.35;;;;;;;;;;5064365;28;20040;-59
2023/07/15 05:31:27;;;;;;;449.90;410.85;;;;;;;;;;5062640;28;20055;-67
2023/07/15 05:33:55;;;;;;;441.73;404.17;;;;;;;;;;5055596;28;20049;-60
2023/07/15 05:36:22;;;;;;;445.95;407.42;;;;;;;;;;5042165;28;20041;-60
2023/07/15 05:38:49;;;;;;;453.73;413.73;;;;;;;;;;5064072;28;20045;-62
2023/07/15 05:41:16;;;;;;;477.05;434.25;;;;;;;;;;5063898;28;20040;-60
2023/07/15 05:43:43;;;;;;;551.42;499.80;;;;;;;;;;5053035;28;20041;-60
2023/07/15 05:46:10;;;;;;;514.05;470.65;;;;;;;;;;5064523;28;20056;-59
2023/07/15 05:48:37;;;;;;;521.42;476.95;;;;;;;;;;5060408;28;20113;-61
2023/07/15 05:51:04;;;;;;;521.58;473.05;;;;;;;;;;5038236;28;20091;-60
2023/07/15 05:53:32;;;;;;;502.27;457.77;;;;;;;;;;5067207;28;20041;-60
2023/07/15 05:55:59;;;;;;;507.05;462.70;;;;;;;;;;5052538;28;20425;-62
2023/07/15 05:58:26;;;;;;;507.40;460.95;;;;;;;;;;5046023;28;20061;-59
2023/07/15 06:00:54;;;;;;;512.20;465.25;;;;;;;;;;5059994;28;20071;-60
2023/07/15 06:03:21;;;;;;;522.15;474.80;;;;;;;;;;5044207;28;20048;-61
2023/07/15 06:05:48;;;;;;;514.65;466.75;;;;;;;;;;5064450;28;20040;-60
2023/07/15 06:08:15;;;;;;;527.38;480.45;;;;;;;;;;5051930;28;20098;-60
2023/07/15 06:10:45;;;;;;;539.00;485.73;;;;;;;;;;5062390;28;20098;-59
2023/07/15 06:13:12;;;;;;;527.85;480.33;;;;;;;;;;5059422;28;20045;-59
2023/07/15 06:15:39;;;;;;;521.17;474.08;;;;;;;;;;5065481;28;20053;-59
2023/07/15 06:18:07;;;;;;;509.20;464.38;;;;;;;;;;5062728;28;20072;-61
2023/07/15 06:20:38;;;;;;;507.20;461.40;;;;;;;;;;5026198;28;20040;-62
2023/07/15 06:23:05;;;;;;;519.20;472.50;;;;;;;;;;5062366;28;20045;-60
2023/07/15 06:25:32;;;;;;;520.42;472.27;;;;;;;;;;5063395;28;20245;-61
2023/07/15 06:28:00;;;;;;;517.38;470.10;;;;;;;;;;5063222;28;20122;-59
2023/07/15 06:30:27;;;;;;;526.38;479.58;;;;;;;;;;5040767;28;20444;-60
2023/07/15 06:32:54;;;;;;;526.33;478.25;;;;;;;;;;5044550;28;20460;-63
2023/07/15 06:35:22;;;;;;;545.28;494.42;;;;;;;;;;5062584;28;20045;-59
2023/07/15 06:37:49;;;;;;;549.63;495.67;;;;;;;;;;5043047;28;20922;-63
2023/07/15 06:40:16;;;;;;;538.80;488.65;;;;;;;;;;5035389;28;20052;-61
2023/07/15 06:42:44;;;;;;;526.97;478.48;;;;;;;;;;5040679;28;20072;-59
2023/07/15 06:45:12;;;;;;;519.78;471.13;;;;;;;;;;5047220;28;20041;-61
2023/07/15 06:47:39;;;;;;;555.92;493.05;;;;;;;;;;5044155;28;20049;-62
2023/07/15 06:50:07;;;;;;;540.42;491.00;;;;;;;;;;5063098;28;20044;-60
2023/07/15 06:52:34;;;;;;;546.58;495.65;;;;;;;;;;5049603;28;20120;-60
2023/07/15 06:55:01;;;;;;;543.60;493.80;;;;;;;;;;5066200;28;20486;-62
2023/07/15 06:57:28;;;;;;;539.35;488.55;;;;;;;;;;5051297;28;20048;-59
2023/07/15 06:59:55;;;;;;;513.20;465.95;;;;;;;;;;5064220;28;20068;-60
2023/07/15 07:02:22;;;;;;;443.85;399.98;;;;;;;;;;5061938;28;20448;-60
2023/07/15 07:04:49;;;;;;;415.75;373.23;;;;;;;;;;5065279;28;21398;-60
2023/07/15 07:07:22;;;;;;;392.45;355.15;;;;;;;;;;5062564;28;20041;-60
2023/07/15 07:09:49;;;;;;;393.20;355.02;;;;;;;;;;5060839;28;20484;-61
2023/07/15 07:12:17;;;;;;;416.67;376.95;;;;;;;;;;5050718;28;20041;-60
2023/07/15 07:14:44;;;;;;;534.13;484.50;;;;;;;;;;5051547;28;20048;-59
2023/07/15 07:17:11;;;;;;;522.33;473.42;;;;;;;;;;5061271;28;20107;-58
2023/07/15 07:19:38;;;;;;;511.65;463.08;;;;;;;;;;5060677;28;20047;-63
2023/07/15 07:22:05;;;;;;;509.95;463.17;;;;;;;;;;5041532;28;20135;-64
2023/07/15 07:24:33;;;;;;;506.77;458.85;;;;;;;;;;5062088;28;20494;-63
2023/07/15 07:27:00;;;;;;;509.25;460.88;;;;;;;;;;5062601;28;20043;-61
2023/07/15 07:29:27;;;;;;;511.65;462.95;;;;;;;;;;5040478;28;20044;-60
2023/07/15 07:31:53;;;;;;;620.20;562.08;;;;;;;;;;5027449;28;20167;-60
2023/07/15 07:34:21;;;;;;;763.95;694.22;;;;;;;;;;5059726;28;20525;-60
2023/07/15 07:36:48;;;;;;;763.55;682.53;;;;;;;;;;5064196;28;20107;-60
2023/07/15 07:39:15;;;;;;;720.95;654.20;;;;;;;;;;5058219;28;20045;-61
2023/07/15 07:41:42;;;;;;;736.20;664.97;;;;;;;;;;5061390;28;20111;-59
2023/07/15 07:44:09;;;;;;;677.35;609.58;;;;;;;;;;5051210;28;20135;-60
2023/07/15 07:46:36;;;;;;;646.75;586.53;;;;;;;;;;5060027;28;20056;-62
2023/07/15 07:49:04;;;;;;;636.42;577.75;;;;;;;;;;5059532;28;20113;-62
2023/07/15 07:51:31;;;;;;;610.42;550.75;;;;;;;;;;5051299;28;20049;-60
2023/07/15 07:53:58;;;;;;;602.60;547.80;;;;;;;;;;5051987;28;20469;-63
2023/07/15 07:56:27;;;;;;;600.10;542.22;;;;;;;;;;5062276;28;20036;-62
2023/07/15 07:58:57;;;;;;;592.85;538.53;;;;;;;;;;5050922;28;20068;-59
2023/07/15 08:01:25;;;;;;;594.17;535.55;;;;;;;;;;5042567;28;20043;-60
2023/07/15 08:03:53;;;;;;;578.20;524.53;;;;;;;;;;5049067;28;20049;-60
2023/07/15 08:06:21;;;;;;;562.47;512.00;;;;;;;;;;5064429;28;20060;-61
2023/07/15 08:08:48;;;;;;;559.80;504.08;;;;;;;;;;5065810;28;20091;-61
2023/07/15 08:11:15;;;;;;;556.85;503.92;;;;;;;;;;5065352;28;20041;-62
2023/07/15 08:13:42;;;;;;;568.67;512.38;;;;;;;;;;5063897;28;20119;-60
2023/07/15 08:16:28;;;;;;;555.35;503.90;;;;;;;;;;5048368;28;20557;-61
2023/07/15 08:18:56;;;;;;;550.25;500.48;;;;;;;;;;5065615;28;20044;-61
2023/07/15 08:21:23;;;;;;;533.92;485.50;;;;;;;;;;5053913;28;20494;-60
2023/07/15 08:23:50;;;;;;;552.92;500.02;;;;;;;;;;5065220;28;20051;-59
2023/07/15 08:26:17;;;;;;;526.70;477.88;;;;;;;;;;5065315;28;20491;-61
2023/07/15 08:28:47;;;;;;;549.08;494.17;;;;;;;;;;5064027;28;20126;-65
2023/07/15 08:31:14;;;;;;;521.00;473.83;;;;;;;;;;5028305;28;20574;-60
2023/07/15 08:33:42;;;;;;;522.55;476.30;;;;;;;;;;5063906;28;20415;-60
2023/07/15 08:36:09;;;;;;;543.83;489.45;;;;;;;;;;5067728;28;20044;-62
2023/07/15 08:38:36;;;;;;;505.88;461.10;;;;;;;;;;5064039;28;20438;-60
2023/07/15 08:41:03;;;;;;;494.77;449.42;;;;;;;;;;5049182;28;20111;-64
2023/07/15 08:43:30;;;;;;;502.65;459.00;;;;;;;;;;5066945;28;20044;-60
2023/07/15 08:46:06;;;;;;;504.20;457.92;;;;;;;;;;5063741;28;20045;-63
2023/07/15 08:48:34;;;;;;;490.30;446.48;;;;;;;;;;5046108;28;20052;-61
2023/07/15 08:51:04;;;;;;;490.65;445.80;;;;;;;;;;5061545;28;20044;-63
2023/07/15 08:53:31;;;;;;;482.83;439.38;;;;;;;;;;5046756;28;20065;-60
2023/07/15 08:55:59;;;;;;;489.60;446.10;;;;;;;;;;5046729;28;20055;-61
2023/07/15 08:58:26;;;;;;;491.33;446.52;;;;;;;;;;5047323;28;20049;-60
2023/07/15 09:00:53;;;;;;;486.23;442.90;;;;;;;;;;5034474;28;20076;-61
2023/07/15 09:03:21;;;;;;;491.88;444.95;;;;;;;;;;5016642;28;20048;-61
2023/07/15 09:05:49;;;;;;;485.77;439.92;;;;;;;;;;5043695;28;20057;-61
2023/07/15 09:08:16;;;;;;;495.30;448.95;;;;;;;;;;5043568;28;20041;-60
2023/07/15 09:10:53;;;;;;;493.73;447.38;;;;;;;;;;5025422;28;20043;-60
2023/07/15 09:13:27;;;;;;;480.40;437.52;;;;;;;;;;5024479;28;20038;-60
2023/07/15 09:15:55;;;;;;;473.20;431.42;;;;;;;;;;5006087;28;20037;-61
2023/07/15 09:18:23;;;;;;;475.30;432.58;;;;;;;;;;5042356;28;20045;-60
2023/07/15 09:20:50;;;;;;;492.73;445.67;;;;;;;;;;5029415;28;20037;-60
2023/07/15 09:23:18;;;;;;;512.75;453.35;;;;;;;;;;5043247;28;20127;-61
2023/07/15 09:25:54;;;;;;;492.73;444.77;;;;;;;;;;5008714;28;20057;-61
2023/07/15 09:28:21;;;;;;;470.83;429.05;;;;;;;;;;5044799;28;20053;-59
2023/07/15 09:30:48;;;;;;;595.80;447.95;;;;;;;;;;5043277;28;20502;-62
2023/07/15 09:33:35;;;;;;;475.10;430.23;;;;;;;;;;5019982;28;20046;-59
2023/07/15 09:36:02;;;;;;;497.30;449.92;;;;;;;;;;5006015;28;20045;-61
2023/07/15 09:38:31;;;;;;;463.33;422.23;;;;;;;;;;5022371;28;20474;-61
2023/07/15 09:40:58;;;;;;;458.58;417.17;;;;;;;;;;5042095;28;20144;-62
2023/07/15 09:43:58;;;;;;;475.30;432.45;;;;;;;;;;5025028;28;20045;-61
2023/07/15 09:46:28;;;;;;;478.73;437.08;;;;;;;;;;4960540;28;20051;-65
2023/07/15 09:48:56;;;;;;;467.15;425.63;;;;;;;;;;4964536;28;20097;-61
2023/07/15 09:51:23;;;;;;;477.70;434.33;;;;;;;;;;4960995;28;20559;-60
2023/07/15 09:53:56;;;;;;;483.67;439.25;;;;;;;;;;4958329;28;20051;-61
2023/07/15 09:56:24;;;;;;;465.75;424.40;;;;;;;;;;4965492;28;20179;-60
2023/07/15 09:58:53;;;;;;;478.25;433.23;;;;;;;;;;4959784;28;20145;-61
2023/07/15 10:01:31;;;;;;;460.10;416.70;;;;;;;;;;4964355;28;20047;-63
2023/07/15 10:04:08;;;;;;;477.58;435.80;;;;;;;;;;4962854;28;20125;-59
2023/07/15 10:06:36;;;;;;;485.05;440.85;;;;;;;;;;4975012;28;20055;-60
2023/07/15 10:09:04;;;;;;;483.73;440.33;;;;;;;;;;4980316;28;20589;-60
2023/07/15 10:11:33;;;;;;;496.10;452.08;;;;;;;;;;4969838;28;20518;-63
2023/07/15 10:14:01;;;;;;;490.60;445.20;;;;;;;;;;4979628;28;21105;-60
2023/07/15 10:16:28;;;;;;;476.00;435.00;;;;;;;;;;4979588;28;20093;-60
2023/07/15 10:18:55;;;;;;;487.98;443.13;;;;;;;;;;4981157;28;20082;-61
2023/07/15 10:21:22;;;;;;;501.80;456.38;;;;;;;;;;4994633;28;20053;-59
2023/07/15 10:24:05;;;;;;;480.40;438.20;;;;;;;;;;5044391;28;20409;-60
2023/07/15 10:26:32;;;;;;;489.25;444.95;;;;;;;;;;5067142;28;20044;-59
2023/07/15 10:29:01;;;;;;;487.20;444.20;;;;;;;;;;5043510;28;20099;-60
2023/07/15 10:31:28;;;;;;;488.95;447.35;;;;;;;;;;5036011;28;20044;-61
2023/07/15 10:34:03;;;;;;;480.75;439.15;;;;;;;;;;5040297;28;20045;-60
2023/07/15 10:36:40;;;;;;;479.80;437.45;;;;;;;;;;5066512;28;20044;-59
2023/07/15 10:39:10;;;;;;;499.67;454.60;;;;;;;;;;5043241;28;20541;-60
2023/07/15 10:41:42;;;;;;;494.73;449.48;;;;;;;;;;5059492;28;20061;-60
2023/07/15 10:44:16;;;;;;;502.65;457.23;;;;;;;;;;5052306;28;20501;-62
2023/07/15 10:47:03;;;;;;;499.38;450.10;;;;;;;;;;5059623;28;20045;-60
2023/07/15 10:49:30;;;;;;;800.08;469.85;;;;;;;;;;5045783;28;20639;-65
2023/07/15 10:51:58;;;;;;;511.30;465.80;;;;;;;;;;5061784;28;20063;-60
2023/07/15 10:54:26;;;;;;;505.63;461.75;;;;;;;;;;5061181;28;20075;-61
2023/07/15 10:56:53;;;;;;;506.42;460.92;;;;;;;;;;5062757;28;20247;-60
2023/07/15 10:59:24;;;;;;;517.40;471.52;;;;;;;;;;5062518;28;20051;-59
2023/07/15 11:01:52;;;;;;;511.80;464.20;;;;;;;;;;5060690;28;20074;-64
2023/07/15 11:04:20;;;;;;;535.38;486.60;;;;;;;;;;5051542;28;20029;-59
2023/07/15 11:06:47;;;;;;;521.67;475.52;;;;;;;;;;5038824;28;20479;-61
2023/07/15 11:09:16;;;;;;;530.67;483.77;;;;;;;;;;5049221;28;20044;-61
2023/07/15 11:11:44;;;;;;;518.90;472.58;;;;;;;;;;5061506;28;20053;-60
2023/07/15 11:14:17;;;;;;;516.42;472.52;;;;;;;;;;5044763;28;20036;-60
2023/07/15 11:16:44;;;;;;;553.85;502.55;;;;;;;;;;5059288;28;20040;-60
2023/07/15 11:19:15;;;;;;;533.83;484.92;;;;;;;;;;5064913;28;20055;-59
2023/07/15 11:21:43;;;;;;;520.72;476.20;;;;;;;;;;5063857;28;20060;-59
2023/07/15 11:24:16;;;;;;;518.05;474.60;;;;;;;;;;5060164;28;20486;-59
2023/07/15 11:26:44;;;;;;;552.13;503.80;;;;;;;;;;5047268;28;20124;-59
2023/07/15 11:29:16;;;;;;;537.17;490.27;;;;;;;;;;5042551;28;20047;-60
2023/07/15 11:31:44;;;;;;;560.95;508.20;;;;;;;;;;5052188;28;20048;-60
2023/07/15 11:34:11;;;;;;;543.90;497.42;;;;;;;;;;5058280;28;20037;-62
2023/07/15 11:36:38;;;;;;;529.17;484.10;;;;;;;;;;5060180;28;20071;-62
2023/07/15 11:39:06;;;;;;;540.00;493.25;;;;;;;;;;5043076;28;20044;-60
2023/07/15 11:41:33;;;;;;;550.97;503.27;;;;;;;;;;5043248;28;21008;-60
2023/07/15 11:44:01;;;;;;;542.80;494.33;;;;;;;;;;5061905;28;20571;-60
2023/07/15 11:46:29;;;;;;;557.28;507.50;;;;;;;;;;5059073;28;20047;-60
2023/07/15 11:48:57;;;;;;;563.35;514.13;;;;;;;;;;5040825;28;20055;-60
2023/07/15 11:51:25;;;;;;;558.65;508.33;;;;;;;;;;5059503;28;20049;-64
2023/07/15 11:53:56;;;;;;;555.72;506.52;;;;;;;;;;5044893;28;20466;-60
2023/07/15 11:56:39;;;;;;;552.20;502.23;;;;;;;;;;5041330;28;20107;-60
2023/07/15 11:59:07;;;;;;;539.70;491.77;;;;;;;;;;5062857;28;20094;-64
2023/07/15 12:01:36;;;;;;;549.05;501.15;;;;;;;;;;5052932;28;20591;-62
2023/07/15 12:04:16;;;;;;;539.70;494.92;;;;;;;;;;5046039;28;20053;-60
2023/07/15 12:06:52;;;;;;;548.50;501.73;;;;;;;;;;5057489;28;20049;-60
2023/07/15 12:09:21;;;;;;;559.67;510.95;;;;;;;;;;5046115;28;20553;-60
2023/07/15 12:11:49;;;;;;;551.42;502.27;;;;;;;;;;5063329;28;20104;-61
2023/07/15 12:14:16;;;;;;;548.00;501.10;;;;;;;;;;5063530;28;20090;-61
2023/07/15 12:16:44;;;;;;;563.20;511.45;;;;;;;;;;5027158;28;20048;-59
2023/07/15 12:19:16;;;;;;;560.42;511.25;;;;;;;;;;5043770;28;20053;-59
2023/07/15 12:21:43;;;;;;;581.37;518.47;;;;;;;;;;5043343;28;20045;-59
2023/07/15 12:24:10;;;;;;;550.05;503.67;;;;;;;;;;5058758;28;20129;-59
2023/07/15 12:26:37;;;;;;;574.05;520.35;;;;;;;;;;5031680;28;20044;-64
2023/07/15 12:29:03;;;;;;;547.28;499.95;;;;;;;;;;5063980;28;20039;-60
2023/07/15 12:31:31;;;;;;;546.40;499.67;;;;;;;;;;5046829;28;20049;-59
2023/07/15 12:33:58;;;;;;;559.85;510.92;;;;;;;;;;5063722;28;20481;-59
2023/07/15 12:36:25;;;;;;;551.50;504.25;;;;;;;;;;5064726;28;20041;-61
2023/07/15 12:38:52;;;;;;;550.08;502.63;;;;;;;;;;5069312;28;20037;-59
2023/07/15 12:41:19;;;;;;;553.78;505.25;;;;;;;;;;5061832;28;20486;-59
2023/07/15 12:43:46;;;;;;;565.25;512.17;;;;;;;;;;5062821;28;20048;-60
2023/07/15 12:46:13;;;;;;;547.38;500.13;;;;;;;;;;5062129;28;20049;-60
2023/07/15 12:48:41;;;;;;;548.85;501.00;;;;;;;;;;5062923;28;20041;-59
2023/07/15 12:51:08;;;;;;;560.60;511.60;;;;;;;;;;5046186;28;20139;-58
2023/07/15 12:53:37;;;;;;;543.45;497.17;;;;;;;;;;5054197;28;20043;-61
2023/07/15 12:56:05;;;;;;;596.25;543.40;;;;;;;;;;5056081;28;20048;-61
2023/07/15 12:58:32;;;;;;;559.03;510.92;;;;;;;;;;5067363;28;20079;-62
2023/07/15 13:01:00;;;;;;;555.97;504.35;;;;;;;;;;5051456;28;20044;-64
2023/07/15 13:03:27;;;;;;;550.90;503.38;;;;;;;;;;5066980;28;20053;-60
2023/07/15 13:05:54;;;;;;;545.80;497.27;;;;;;;;;;5054101;28;20549;-60
2023/07/15 13:08:21;;;;;;;787.80;496.58;;;;;;;;;;5044759;28;20057;-60
2023/07/15 13:10:48;;;;;;;554.80;502.42;;;;;;;;;;5065304;28;20543;-59
2023/07/15 13:13:15;;;;;;;541.58;494.08;;;;;;;;;;5054576;28;20051;-60
2023/07/15 13:15:44;;;;;;;538.40;491.02;;;;;;;;;;5044007;28;20048;-59
2023/07/15 13:18:12;;;;;;;538.28;490.23;;;;;;;;;;5061737;28;20120;-60
2023/07/15 13:20:39;;;;;;;552.38;503.38;;;;;;;;;;5045901;28;20573;-60
2023/07/15 13:23:06;;;;;;;556.90;504.73;;;;;;;;;;5061555;28;20067;-64
2023/07/15 13:25:33;;;;;;;551.50;503.83;;;;;;;;;;5047086;28;20159;-59
2023/07/15 13:28:00;;;;;;;565.15;515.58;;;;;;;;;;5061119;28;20079;-59
2023/07/15 13:30:27;;;;;;;561.40;510.40;;;;;;;;;;5071622;28;20482;-60
2023/07/15 13:32:54;;;;;;;565.97;515.10;;;;;;;;;;5068546;28;20094;-59
2023/07/15 13:35:21;;;;;;;565.13;515.13;;;;;;;;;;5062753;28;20033;-60
2023/07/15 13:37:48;;;;;;;558.03;505.90;;;;;;;;;;5062853;28;20052;-58
2023/07/15 13:40:15;;;;;;;549.25;500.13;;;;;;;;;;5044253;28;20135;-59
2023/07/15 13:42:43;;;;;;;547.45;497.63;;;;;;;;;;5064641;28;20047;-60
2023/07/15 13:45:10;;;;;;;561.28;509.83;;;;;;;;;;5061773;28;20045;-62
2023/07/15 13:47:37;;;;;;;559.97;508.30;;;;;;;;;;5062215;28;20120;-62
2023/07/15 13:50:04;;;;;;;554.78;505.15;;;;;;;;;;5065215;28;20056;-60
2023/07/15 13:52:31;;;;;;;553.67;504.33;;;;;;;;;;5064562;28;20045;-61
2023/07/15 13:54:58;;;;;;;557.42;506.30;;;;;;;;;;5043182;28;20048;-60
2023/07/15 13:57:25;;;;;;;544.15;495.30;;;;;;;;;;5044084;28;20048;-62